^^
Saratoga-Weather Station Historical Data
Daily Summary for December 13, 2021 Units:  Both    English   Metric
Daily Weekly Monthly Yearly Custom
  High: Low: Average:
Temperature: 45.7 °F /  7.6 °C 41.4 °F /  5.2 °C 43.2 °F /  6.2 °C
Dew Point: 45.1 °F /  7.3 °C 40.6 °F /  4.8 °C 42.3 °F /  5.7 °C
Humidity: 98% 95% 97%
Wind Speed: 2.9mph /  4.7km/h - 0.6mph /  0.9km/h
Wind Gust: 7mph /  11.3km/h - -
Wind- - ESE
Pressure: 30.4 in /  1028.5 hPa 30.3 in /  1027.4 hPa -
Precipitation: 0.01 in /  0.2 mm    
Historical Graphs
 
 
Tabular Data for December 13, 2021
Time Temperature Dew Point Pressure Wind Wind Speed Wind Gust Humidity Rainfall Rate (Hourly) solar
00:02 42.4 °F /  5.8 °C 41.7 °F /  5.4 °C 30.3in /  1027.4hPa Calm     97% 0in /  0.0mm 0 W/m2
00:07 42.4 °F /  5.8 °C 41.7 °F /  5.4 °C 30.3in /  1027.4hPa Calm     97% 0in /  0.0mm 0 W/m2
00:12 42.4 °F /  5.8 °C 41.7 °F /  5.4 °C 30.3in /  1027.4hPa Calm     97% 0in /  0.0mm 0 W/m2
00:17 42.6 °F /  5.9 °C 41.9 °F /  5.5 °C 30.3in /  1027.4hPa Calm     97% 0in /  0.0mm 0 W/m2
00:22 42.6 °F /  5.9 °C 41.9 °F /  5.5 °C 30.3in /  1027.4hPa Calm     97% 0in /  0.0mm 0 W/m2
00:27 42.6 °F /  5.9 °C 41.9 °F /  5.5 °C 30.3in /  1027.4hPa Calm     97% 0in /  0.0mm 0 W/m2
00:32 42.4 °F /  5.8 °C 41.7 °F /  5.4 °C 30.3in /  1027.4hPa Calm   2mph /  3.2km/h 97% 0in /  0.0mm 0 W/m2
00:37 42.4 °F /  5.8 °C 41.7 °F /  5.4 °C 30.3in /  1027.4hPa Calm     97% 0in /  0.0mm 0 W/m2
00:42 42.4 °F /  5.8 °C 41.7 °F /  5.4 °C 30.3in /  1027.4hPa Calm   1mph /  1.6km/h 97% 0in /  0.0mm 0 W/m2
00:47 42.6 °F /  5.9 °C 41.9 °F /  5.5 °C 30.3in /  1027.4hPa Calm   2mph /  3.2km/h 97% 0in /  0.0mm 0 W/m2
00:52 42.6 °F /  5.9 °C 41.9 °F /  5.5 °C 30.3in /  1027.4hPa Calm     97% 0in /  0.0mm 0 W/m2
00:57 42.6 °F /  5.9 °C 41.9 °F /  5.5 °C 30.3in /  1027.4hPa Calm   2mph /  3.2km/h 97% 0in /  0.0mm 0 W/m2
01:02 42.6 °F /  5.9 °C 41.9 °F /  5.5 °C 30.3in /  1027.4hPa Calm     97% 0in /  0.0mm 0 W/m2
01:07 42.4 °F /  5.8 °C 41.7 °F /  5.4 °C 30.3in /  1027.4hPa ENE 2mph /  3.2km/h 2mph /  3.2km/h 97% 0in /  0.0mm 0 W/m2
01:12 42.4 °F /  5.8 °C 41.7 °F /  5.4 °C 30.3in /  1027.4hPa East 0.9mph /  1.4km/h 2mph /  3.2km/h 97% 0in /  0.0mm 0 W/m2
01:17 42.4 °F /  5.8 °C 41.7 °F /  5.4 °C 30.3in /  1027.4hPa Calm     97% 0in /  0.0mm 0 W/m2
01:22 42.4 °F /  5.8 °C 41.7 °F /  5.4 °C 30.3in /  1027.4hPa Calm     97% 0in /  0.0mm 0 W/m2
01:27 42.3 °F /  5.7 °C 41.5 °F /  5.3 °C 30.3in /  1027.4hPa Calm     97% 0in /  0.0mm 0 W/m2
01:32 42.3 °F /  5.7 °C 41.5 °F /  5.3 °C 30.3in /  1027.4hPa Calm   1mph /  1.6km/h 97% 0in /  0.0mm 0 W/m2
01:37 42.1 °F /  5.6 °C 41.4 °F /  5.2 °C 30.3in /  1027.4hPa Calm     97% 0in /  0.0mm 0 W/m2
01:42 42.1 °F /  5.6 °C 41.4 °F /  5.2 °C 30.3in /  1027.4hPa Calm   1mph /  1.6km/h 97% 0in /  0.0mm 0 W/m2
01:47 42.1 °F /  5.6 °C 41.4 °F /  5.2 °C 30.3in /  1027.4hPa Calm     97% 0in /  0.0mm 0 W/m2
01:52 42.1 °F /  5.6 °C 41.4 °F /  5.2 °C 30.3in /  1027.4hPa Calm   2mph /  3.2km/h 97% 0in /  0.0mm 0 W/m2
01:57 42.1 °F /  5.6 °C 41.4 °F /  5.2 °C 30.3in /  1027.4hPa East 0.9mph /  1.4km/h 2mph /  3.2km/h 97% 0in /  0.0mm 0 W/m2
02:02 42.3 °F /  5.7 °C 41.5 °F /  5.3 °C 30.3in /  1027.4hPa Calm     97% 0in /  0.0mm 0 W/m2
02:07 42.3 °F /  5.7 °C 41.5 °F /  5.3 °C 30.3in /  1027.4hPa Calm     97% 0in /  0.0mm 0 W/m2
02:12 42.3 °F /  5.7 °C 41.5 °F /  5.3 °C 30.3in /  1027.4hPa East 2mph /  3.2km/h 2mph /  3.2km/h 97% 0in /  0.0mm 0 W/m2
02:17 42.3 °F /  5.7 °C 41.5 °F /  5.3 °C 30.3in /  1027.4hPa East 0.9mph /  1.4km/h 1mph /  1.6km/h 97% 0in /  0.0mm 0 W/m2
02:22 42.3 °F /  5.7 °C 41.5 °F /  5.3 °C 30.3in /  1027.4hPa East 2mph /  3.2km/h 2mph /  3.2km/h 97% 0in /  0.0mm 0 W/m2
02:41 42.1 °F /  5.6 °C 41.4 °F /  5.2 °C 30.3in /  1027.4hPa Calm   2mph /  3.2km/h 97% 0in /  0.0mm 0 W/m2
02:46 42.1 °F /  5.6 °C 41.4 °F /  5.2 °C 30.4in /  1027.8hPa East 2mph /  3.2km/h 3mph /  4.8km/h 97% 0in /  0.0mm 0 W/m2
02:52 42.1 °F /  5.6 °C 41.4 °F /  5.2 °C 30.3in /  1027.4hPa Calm   2mph /  3.2km/h 97% 0in /  0.0mm 0 W/m2
02:57 42.1 °F /  5.6 °C 41.4 °F /  5.2 °C 30.3in /  1027.4hPa Calm   3mph /  4.8km/h 97% 0in /  0.0mm 0 W/m2
03:02 42.1 °F /  5.6 °C 41.4 °F /  5.2 °C 30.4in /  1027.8hPa East 0.9mph /  1.4km/h 2mph /  3.2km/h 97% 0in /  0.0mm 0 W/m2
03:07 42.1 °F /  5.6 °C 41.4 °F /  5.2 °C 30.4in /  1027.8hPa East 0.9mph /  1.4km/h 2mph /  3.2km/h 97% 0in /  0.0mm 0 W/m2
03:12 42.1 °F /  5.6 °C 41.4 °F /  5.2 °C 30.4in /  1027.8hPa East 0.9mph /  1.4km/h 2mph /  3.2km/h 97% 0in /  0.0mm 0 W/m2
03:17 42.1 °F /  5.6 °C 41.4 °F /  5.2 °C 30.4in /  1027.8hPa East 2mph /  3.2km/h 2mph /  3.2km/h 97% 0in /  0.0mm 0 W/m2
03:22 42.1 °F /  5.6 °C 41.4 °F /  5.2 °C 30.3in /  1027.4hPa East 0.9mph /  1.4km/h 2mph /  3.2km/h 97% 0in /  0.0mm 0 W/m2
03:27 42.1 °F /  5.6 °C 41.4 °F /  5.2 °C 30.3in /  1027.4hPa Calm   2mph /  3.2km/h 97% 0in /  0.0mm 0 W/m2
03:32 42.1 °F /  5.6 °C 41.4 °F /  5.2 °C 30.3in /  1027.4hPa Calm     97% 0in /  0.0mm 0 W/m2
03:37 42.1 °F /  5.6 °C 41.4 °F /  5.2 °C 30.3in /  1027.4hPa Calm     97% 0in /  0.0mm 0 W/m2
03:42 42.1 °F /  5.6 °C 41.4 °F /  5.2 °C 30.4in /  1027.8hPa Calm     97% 0in /  0.0mm 0 W/m2
03:47 42.1 °F /  5.6 °C 41.4 °F /  5.2 °C 30.3in /  1027.4hPa Calm   1mph /  1.6km/h 97% 0in /  0.0mm 0 W/m2
03:52 42.1 °F /  5.6 °C 41.4 °F /  5.2 °C 30.4in /  1027.8hPa East 2mph /  3.2km/h 2mph /  3.2km/h 97% 0in /  0.0mm 0 W/m2
03:57 41.9 °F /  5.5 °C 41.2 °F /  5.1 °C 30.3in /  1027.4hPa East 0.9mph /  1.4km/h 1mph /  1.6km/h 97% 0in /  0.0mm 0 W/m2
04:02 41.9 °F /  5.5 °C 41.2 °F /  5.1 °C 30.3in /  1027.4hPa Calm     97% 0in /  0.0mm 0 W/m2
04:07 41.9 °F /  5.5 °C 41.2 °F /  5.1 °C 30.4in /  1027.8hPa Calm     97% 0in /  0.0mm 0 W/m2
04:12 41.9 °F /  5.5 °C 41.2 °F /  5.1 °C 30.3in /  1027.4hPa Calm     97% 0in /  0.0mm 0 W/m2
04:17 41.9 °F /  5.5 °C 41.2 °F /  5.1 °C 30.3in /  1027.4hPa Calm     97% 0in /  0.0mm 0 W/m2
04:22 41.9 °F /  5.5 °C 41.2 °F /  5.1 °C 30.3in /  1027.4hPa Calm     97% 0in /  0.0mm 0 W/m2
04:27 41.9 °F /  5.5 °C 41.2 °F /  5.1 °C 30.3in /  1027.4hPa Calm     97% 0in /  0.0mm 0 W/m2
04:32 41.9 °F /  5.5 °C 41.2 °F /  5.1 °C 30.3in /  1027.4hPa Calm     97% 0in /  0.0mm 0 W/m2
04:37 41.9 °F /  5.5 °C 41.2 °F /  5.1 °C 30.3in /  1027.4hPa Calm     97% 0in /  0.0mm 0 W/m2
04:42 41.9 °F /  5.5 °C 41.2 °F /  5.1 °C 30.3in /  1027.4hPa Calm     97% 0in /  0.0mm 0 W/m2
04:47 41.7 °F /  5.4 °C 41 °F /  5 °C 30.3in /  1027.4hPa Calm     97% 0in /  0.0mm 0 W/m2
04:52 41.9 °F /  5.5 °C 41.2 °F /  5.1 °C 30.3in /  1027.4hPa East 0.9mph /  1.4km/h 2mph /  3.2km/h 97% 0in /  0.0mm 0 W/m2
04:57 41.9 °F /  5.5 °C 41.2 °F /  5.1 °C 30.3in /  1027.4hPa East 0.9mph /  1.4km/h 2mph /  3.2km/h 97% 0in /  0.0mm 0 W/m2
05:02 41.9 °F /  5.5 °C 41.2 °F /  5.1 °C 30.3in /  1027.4hPa Calm     97% 0in /  0.0mm 0 W/m2
05:19 41.9 °F /  5.5 °C 41.2 °F /  5.1 °C 30.3in /  1027.4hPa Calm   2mph /  3.2km/h 97% 0in /  0.0mm 0 W/m2
05:24 41.9 °F /  5.5 °C 41.2 °F /  5.1 °C 30.3in /  1027.4hPa Calm     97% 0in /  0.0mm 0 W/m2
05:29 41.9 °F /  5.5 °C 41.2 °F /  5.1 °C 30.3in /  1027.4hPa Calm   2mph /  3.2km/h 97% 0in /  0.0mm 0 W/m2
05:34 41.9 °F /  5.5 °C 41.2 °F /  5.1 °C 30.3in /  1027.4hPa Calm     97% 0in /  0.0mm 0 W/m2
05:39 41.9 °F /  5.5 °C 41.2 °F /  5.1 °C 30.4in /  1027.8hPa Calm     97% 0in /  0.0mm 0 W/m2
05:44 41.9 °F /  5.5 °C 41.2 °F /  5.1 °C 30.4in /  1027.8hPa Calm     97% 0in /  0.0mm 0 W/m2
05:49 41.9 °F /  5.5 °C 41.2 °F /  5.1 °C 30.4in /  1027.8hPa Calm     97% 0in /  0.0mm 0 W/m2
05:54 41.9 °F /  5.5 °C 41.2 °F /  5.1 °C 30.4in /  1027.8hPa Calm     97% 0in /  0.0mm 0 W/m2
05:59 41.9 °F /  5.5 °C 41.2 °F /  5.1 °C 30.4in /  1027.8hPa East 2mph /  3.2km/h 2mph /  3.2km/h 97% 0in /  0.0mm 0 W/m2
06:04 41.9 °F /  5.5 °C 41.2 °F /  5.1 °C 30.4in /  1027.8hPa ESE 2mph /  3.2km/h 2mph /  3.2km/h 97% 0in /  0.0mm 0 W/m2
06:09 41.9 °F /  5.5 °C 41.2 °F /  5.1 °C 30.4in /  1027.8hPa Calm   2mph /  3.2km/h 97% 0in /  0.0mm 0 W/m2
06:14 41.9 °F /  5.5 °C 41.2 °F /  5.1 °C 30.4in /  1027.8hPa Calm     97% 0in /  0.0mm 0 W/m2
06:19 41.9 °F /  5.5 °C 41.2 °F /  5.1 °C 30.4in /  1027.8hPa ESE 0.9mph /  1.4km/h 2mph /  3.2km/h 97% 0in /  0.0mm 0 W/m2
06:24 41.9 °F /  5.5 °C 41.2 °F /  5.1 °C 30.4in /  1027.8hPa Calm   2mph /  3.2km/h 97% 0in /  0.0mm 0 W/m2
06:29 41.9 °F /  5.5 °C 41.2 °F /  5.1 °C 30.4in /  1027.8hPa ESE 0.9mph /  1.4km/h 2mph /  3.2km/h 97% 0in /  0.0mm 0 W/m2
06:34 41.9 °F /  5.5 °C 41.2 °F /  5.1 °C 30.4in /  1028.1hPa ESE 0.9mph /  1.4km/h 2mph /  3.2km/h 97% 0in /  0.0mm 0 W/m2
06:39 41.9 °F /  5.5 °C 41.2 °F /  5.1 °C 30.4in /  1027.8hPa ESE 0.9mph /  1.4km/h 2mph /  3.2km/h 97% 0in /  0.0mm 0 W/m2
06:44 41.9 °F /  5.5 °C 41.2 °F /  5.1 °C 30.4in /  1027.8hPa ESE 2mph /  3.2km/h 2mph /  3.2km/h 97% 0in /  0.0mm 0 W/m2
06:49 41.9 °F /  5.5 °C 41.2 °F /  5.1 °C 30.4in /  1028.1hPa ESE 2mph /  3.2km/h 3mph /  4.8km/h 97% 0in /  0.0mm 0 W/m2
06:54 41.7 °F /  5.4 °C 41 °F /  5 °C 30.4in /  1028.1hPa ESE 2mph /  3.2km/h 2mph /  3.2km/h 97% 0in /  0.0mm 0 W/m2
06:59 41.7 °F /  5.4 °C 41 °F /  5 °C 30.4in /  1028.1hPa ESE 0.9mph /  1.4km/h 4mph /  6.4km/h 97% 0in /  0.0mm 0 W/m2
07:04 41.7 °F /  5.4 °C 41 °F /  5 °C 30.4in /  1028.1hPa ESE 0.9mph /  1.4km/h 2mph /  3.2km/h 97% 0in /  0.0mm 0 W/m2
07:09 41.5 °F /  5.3 °C 41 °F /  5 °C 30.4in /  1028.1hPa ESE 0.9mph /  1.4km/h 3mph /  4.8km/h 98% 0.01in /  0.2mm 0 W/m2
07:14 41.5 °F /  5.3 °C 41 °F /  5 °C 30.4in /  1028.1hPa ESE 0.9mph /  1.4km/h 2mph /  3.2km/h 98% 0.01in /  0.2mm 0 W/m2
07:19 41.5 °F /  5.3 °C 41 °F /  5 °C 30.4in /  1028.1hPa ESE 2mph /  3.2km/h 3mph /  4.8km/h 98% 0.01in /  0.2mm 0 W/m2
07:24 41.5 °F /  5.3 °C 41 °F /  5 °C 30.4in /  1028.1hPa ESE 0.9mph /  1.4km/h 3mph /  4.8km/h 98% 0.01in /  0.2mm 0 W/m2
07:29 41.5 °F /  5.3 °C 41 °F /  5 °C 30.4in /  1028.1hPa ESE 0.9mph /  1.4km/h 4mph /  6.4km/h 98% 0.01in /  0.2mm 0 W/m2
07:34 41.4 °F /  5.2 °C 40.6 °F /  4.8 °C 30.4in /  1028.1hPa ESE 2mph /  3.2km/h 4mph /  6.4km/h 97% 0.01in /  0.2mm 0 W/m2
07:39 41.4 °F /  5.2 °C 40.6 °F /  4.8 °C 30.4in /  1028.1hPa ESE 0.9mph /  1.4km/h 4mph /  6.4km/h 97% 0.01in /  0.2mm 0 W/m2
07:44 41.4 °F /  5.2 °C 40.6 °F /  4.8 °C 30.4in /  1028.1hPa East 2.9mph /  4.7km/h 4mph /  6.4km/h 97% 0.01in /  0.2mm 0 W/m2
07:49 41.4 °F /  5.2 °C 40.6 °F /  4.8 °C 30.4in /  1028.1hPa ESE 0.9mph /  1.4km/h 3mph /  4.8km/h 97% 0.01in /  0.2mm 0 W/m2
07:54 41.4 °F /  5.2 °C 40.6 °F /  4.8 °C 30.4in /  1028.1hPa ESE 2mph /  3.2km/h 4mph /  6.4km/h 97% 0.01in /  0.2mm 0 W/m2
07:59 41.4 °F /  5.2 °C 40.6 °F /  4.8 °C 30.4in /  1028.1hPa ESE 2mph /  3.2km/h 2mph /  3.2km/h 97% 0.01in /  0.2mm 0 W/m2
08:04 41.4 °F /  5.2 °C 40.6 °F /  4.8 °C 30.4in /  1028.1hPa East 2mph /  3.2km/h 4mph /  6.4km/h 97% 0.01in /  0.2mm 0 W/m2
08:09 41.4 °F /  5.2 °C 40.6 °F /  4.8 °C 30.4in /  1028.1hPa ESE 2mph /  3.2km/h 3mph /  4.8km/h 97% 0in /  0.0mm 0 W/m2
08:14 41.4 °F /  5.2 °C 40.6 °F /  4.8 °C 30.4in /  1028.1hPa ESE 2mph /  3.2km/h 2mph /  3.2km/h 97% 0in /  0.0mm 0 W/m2
08:19 41.4 °F /  5.2 °C 40.6 °F /  4.8 °C 30.4in /  1028.1hPa ESE 2mph /  3.2km/h 3mph /  4.8km/h 97% 0in /  0.0mm 0 W/m2
08:24 41.4 °F /  5.2 °C 40.6 °F /  4.8 °C 30.4in /  1028.1hPa East 0.9mph /  1.4km/h 2mph /  3.2km/h 97% 0in /  0.0mm 0 W/m2
08:29 41.4 °F /  5.2 °C 40.6 °F /  4.8 °C 30.4in /  1028.1hPa ESE 2mph /  3.2km/h 3mph /  4.8km/h 97% 0in /  0.0mm 5 W/m2
08:34 41.4 °F /  5.2 °C 40.6 °F /  4.8 °C 30.4in /  1028.1hPa ESE 0.9mph /  1.4km/h 3mph /  4.8km/h 97% 0in /  0.0mm 5 W/m2
08:39 41.4 °F /  5.2 °C 40.6 °F /  4.8 °C 30.4in /  1028.1hPa SE 2mph /  3.2km/h 2mph /  3.2km/h 97% 0in /  0.0mm 7 W/m2
08:44 41.4 °F /  5.2 °C 40.6 °F /  4.8 °C 30.4in /  1028.1hPa ESE 2.9mph /  4.7km/h 3mph /  4.8km/h 97% 0in /  0.0mm 9 W/m2
08:49 41.4 °F /  5.2 °C 40.6 °F /  4.8 °C 30.4in /  1028.1hPa ESE 2mph /  3.2km/h 2mph /  3.2km/h 97% 0in /  0.0mm 12 W/m2
08:54 41.4 °F /  5.2 °C 40.6 °F /  4.8 °C 30.4in /  1028.5hPa ESE 0.9mph /  1.4km/h 2mph /  3.2km/h 97% 0in /  0.0mm 21 W/m2
08:59 41.4 °F /  5.2 °C 40.6 °F /  4.8 °C 30.4in /  1028.5hPa ESE 0.9mph /  1.4km/h 1mph /  1.6km/h 97% 0in /  0.0mm 19 W/m2
09:04 41.4 °F /  5.2 °C 40.6 °F /  4.8 °C 30.4in /  1028.5hPa Calm     97% 0in /  0.0mm 19 W/m2
09:09 41.4 °F /  5.2 °C 40.8 °F /  4.9 °C 30.4in /  1028.5hPa ESE 0.9mph /  1.4km/h 2mph /  3.2km/h 98% 0in /  0.0mm 18 W/m2
09:14 41.4 °F /  5.2 °C 40.8 °F /  4.9 °C 30.4in /  1028.5hPa Calm     98% 0in /  0.0mm 19 W/m2
09:20 41.4 °F /  5.2 °C 40.8 °F /  4.9 °C 30.4in /  1028.5hPa Calm     98% 0in /  0.0mm 25 W/m2
09:25 41.4 °F /  5.2 °C 40.8 °F /  4.9 °C 30.4in /  1028.5hPa Calm     98% 0in /  0.0mm 39 W/m2
09:30 41.5 °F /  5.3 °C 41 °F /  5 °C 30.4in /  1028.5hPa Calm     98% 0in /  0.0mm 33 W/m2
09:35 41.5 °F /  5.3 °C 41 °F /  5 °C 30.4in /  1028.5hPa Calm     98% 0in /  0.0mm 33 W/m2
09:40 41.5 °F /  5.3 °C 41 °F /  5 °C 30.4in /  1028.5hPa Calm     98% 0in /  0.0mm 32 W/m2
09:45 41.7 °F /  5.4 °C 41.2 °F /  5.1 °C 30.4in /  1028.5hPa ESE 0.9mph /  1.4km/h 2mph /  3.2km/h 98% 0in /  0.0mm 33 W/m2
09:50 41.7 °F /  5.4 °C 41.2 °F /  5.1 °C 30.4in /  1028.5hPa Calm     98% 0in /  0.0mm 35 W/m2
09:55 41.7 °F /  5.4 °C 41.2 °F /  5.1 °C 30.4in /  1028.5hPa Calm     98% 0in /  0.0mm 33 W/m2
10:00 41.9 °F /  5.5 °C 41.4 °F /  5.2 °C 30.4in /  1028.5hPa Calm     98% 0in /  0.0mm 49 W/m2
10:05 42.1 °F /  5.6 °C 41.5 °F /  5.3 °C 30.4in /  1028.5hPa ESE 2mph /  3.2km/h 2mph /  3.2km/h 98% 0in /  0.0mm 40 W/m2
10:10 42.1 °F /  5.6 °C 41.5 °F /  5.3 °C 30.4in /  1028.5hPa Calm     98% 0in /  0.0mm 51 W/m2
10:15 42.1 °F /  5.6 °C 41.5 °F /  5.3 °C 30.4in /  1028.5hPa Calm     98% 0in /  0.0mm 51 W/m2
10:20 42.1 °F /  5.6 °C 41.5 °F /  5.3 °C 30.4in /  1028.5hPa East 0.9mph /  1.4km/h 3mph /  4.8km/h 98% 0in /  0.0mm 47 W/m2
10:25 42.1 °F /  5.6 °C 41.5 °F /  5.3 °C 30.4in /  1028.5hPa ESE 2mph /  3.2km/h 2mph /  3.2km/h 98% 0in /  0.0mm 47 W/m2
10:30 42.3 °F /  5.7 °C 41.7 °F /  5.4 °C 30.4in /  1028.5hPa ESE 2mph /  3.2km/h 3mph /  4.8km/h 98% 0in /  0.0mm 63 W/m2
10:35 42.3 °F /  5.7 °C 41.7 °F /  5.4 °C 30.4in /  1028.5hPa ESE 2mph /  3.2km/h 2mph /  3.2km/h 98% 0in /  0.0mm 65 W/m2
10:40 42.3 °F /  5.7 °C 41.7 °F /  5.4 °C 30.4in /  1028.5hPa ESE 2mph /  3.2km/h 4mph /  6.4km/h 98% 0in /  0.0mm 72 W/m2
10:45 42.4 °F /  5.8 °C 41.9 °F /  5.5 °C 30.4in /  1028.5hPa ESE 0.9mph /  1.4km/h 2mph /  3.2km/h 98% 0in /  0.0mm 84 W/m2
10:50 42.4 °F /  5.8 °C 41.9 °F /  5.5 °C 30.4in /  1028.5hPa ESE 2mph /  3.2km/h 4mph /  6.4km/h 98% 0in /  0.0mm 67 W/m2
10:55 42.4 °F /  5.8 °C 41.9 °F /  5.5 °C 30.4in /  1028.5hPa ESE 0.9mph /  1.4km/h 3mph /  4.8km/h 98% 0in /  0.0mm 72 W/m2
11:00 42.6 °F /  5.9 °C 42.1 °F /  5.6 °C 30.4in /  1028.5hPa Calm   2mph /  3.2km/h 98% 0in /  0.0mm 65 W/m2
11:05 42.6 °F /  5.9 °C 42.1 °F /  5.6 °C 30.4in /  1028.5hPa ESE 0.9mph /  1.4km/h 4mph /  6.4km/h 98% 0in /  0.0mm 76 W/m2
11:10 42.6 °F /  5.9 °C 42.1 °F /  5.6 °C 30.4in /  1028.5hPa Calm   3mph /  4.8km/h 98% 0in /  0.0mm 65 W/m2
11:15 42.6 °F /  5.9 °C 42.1 °F /  5.6 °C 30.4in /  1028.5hPa Calm   2mph /  3.2km/h 98% 0in /  0.0mm 58 W/m2
11:20 42.6 °F /  5.9 °C 42.1 °F /  5.6 °C 30.4in /  1028.5hPa Calm     98% 0in /  0.0mm 56 W/m2
11:25 42.6 °F /  5.9 °C 42.1 °F /  5.6 °C 30.4in /  1028.5hPa Calm   2mph /  3.2km/h 98% 0in /  0.0mm 53 W/m2
11:30 42.8 °F /  6 °C 42.3 °F /  5.7 °C 30.4in /  1028.5hPa ENE 0.9mph /  1.4km/h 2mph /  3.2km/h 98% 0in /  0.0mm 63 W/m2
11:35 42.8 °F /  6 °C 42.3 °F /  5.7 °C 30.4in /  1028.5hPa Calm   3mph /  4.8km/h 98% 0in /  0.0mm 72 W/m2
11:40 43 °F /  6.1 °C 42.4 °F /  5.8 °C 30.4in /  1028.5hPa ESE 0.9mph /  1.4km/h 2mph /  3.2km/h 98% 0in /  0.0mm 65 W/m2
11:45 43.2 °F /  6.2 °C 42.6 °F /  5.9 °C 30.4in /  1028.5hPa Calm     98% 0in /  0.0mm 77 W/m2
11:50 43.2 °F /  6.2 °C 42.6 °F /  5.9 °C 30.4in /  1028.1hPa ESE 0.9mph /  1.4km/h 2mph /  3.2km/h 98% 0in /  0.0mm 70 W/m2
11:55 43.3 °F /  6.3 °C 42.8 °F /  6 °C 30.4in /  1028.1hPa Calm   2mph /  3.2km/h 98% 0in /  0.0mm 97 W/m2
12:00 43.3 °F /  6.3 °C 42.8 °F /  6 °C 30.4in /  1028.5hPa Calm   1mph /  1.6km/h 98% 0in /  0.0mm 81 W/m2
12:05 43.3 °F /  6.3 °C 42.8 °F /  6 °C 30.4in /  1028.5hPa Calm   1mph /  1.6km/h 98% 0in /  0.0mm 62 W/m2
12:10 43.3 °F /  6.3 °C 42.8 °F /  6 °C 30.4in /  1028.1hPa East 0.9mph /  1.4km/h 2mph /  3.2km/h 98% 0in /  0.0mm 65 W/m2
12:15 43.3 °F /  6.3 °C 42.8 °F /  6 °C 30.4in /  1028.5hPa East 0.9mph /  1.4km/h 2mph /  3.2km/h 98% 0in /  0.0mm 65 W/m2
12:20 43.3 °F /  6.3 °C 42.8 °F /  6 °C 30.4in /  1028.5hPa Calm   2mph /  3.2km/h 98% 0in /  0.0mm 63 W/m2
12:25 43.3 °F /  6.3 °C 42.8 °F /  6 °C 30.4in /  1028.5hPa Calm     98% 0in /  0.0mm 70 W/m2
12:30 43.3 °F /  6.3 °C 42.8 °F /  6 °C 30.4in /  1028.1hPa Calm   2mph /  3.2km/h 98% 0in /  0.0mm 88 W/m2
12:35 43.5 °F /  6.4 °C 43 °F /  6.1 °C 30.4in /  1028.1hPa Calm     98% 0in /  0.0mm 81 W/m2
12:40 43.7 °F /  6.5 °C 43.2 °F /  6.2 °C 30.4in /  1028.1hPa Calm     98% 0in /  0.0mm 72 W/m2
12:45 43.9 °F /  6.6 °C 43.3 °F /  6.3 °C 30.4in /  1028.1hPa SSW 0.9mph /  1.4km/h 2mph /  3.2km/h 98% 0in /  0.0mm 88 W/m2
12:50 43.9 °F /  6.6 °C 43.3 °F /  6.3 °C 30.4in /  1028.1hPa Calm   2mph /  3.2km/h 98% 0in /  0.0mm 91 W/m2
12:55 43.9 °F /  6.6 °C 43.3 °F /  6.3 °C 30.4in /  1028.1hPa Calm   2mph /  3.2km/h 98% 0in /  0.0mm 97 W/m2
13:00 44.1 °F /  6.7 °C 43.5 °F /  6.4 °C 30.4in /  1028.1hPa Calm   1mph /  1.6km/h 98% 0in /  0.0mm 91 W/m2
13:05 44.2 °F /  6.8 °C 43.7 °F /  6.5 °C 30.4in /  1028.1hPa Calm   2mph /  3.2km/h 98% 0in /  0.0mm 77 W/m2
13:10 44.2 °F /  6.8 °C 43.7 °F /  6.5 °C 30.4in /  1028.1hPa West 2mph /  3.2km/h 2mph /  3.2km/h 98% 0in /  0.0mm 84 W/m2
13:15 44.2 °F /  6.8 °C 43.7 °F /  6.5 °C 30.4in /  1027.8hPa Calm     98% 0in /  0.0mm 84 W/m2
13:21 44.4 °F /  6.9 °C 43.9 °F /  6.6 °C 30.4in /  1027.8hPa Calm     98% 0in /  0.0mm 88 W/m2
13:26 44.4 °F /  6.9 °C 43.9 °F /  6.6 °C 30.4in /  1027.8hPa Calm     98% 0in /  0.0mm 83 W/m2
13:31 44.4 °F /  6.9 °C 43.9 °F /  6.6 °C 30.3in /  1027.4hPa Calm     98% 0in /  0.0mm 77 W/m2
13:36 44.6 °F /  7 °C 44.1 °F /  6.7 °C 30.3in /  1027.4hPa Calm     98% 0in /  0.0mm 79 W/m2
13:41 44.6 °F /  7 °C 44.1 °F /  6.7 °C 30.4in /  1027.8hPa Calm     98% 0in /  0.0mm 69 W/m2
13:46 44.8 °F /  7.1 °C 44.2 °F /  6.8 °C 30.3in /  1027.4hPa Calm     98% 0in /  0.0mm 63 W/m2
13:51 44.8 °F /  7.1 °C 44.2 °F /  6.8 °C 30.3in /  1027.4hPa Calm     98% 0in /  0.0mm 65 W/m2
13:56 45 °F /  7.2 °C 44.4 °F /  6.9 °C 30.4in /  1027.8hPa Calm     98% 0in /  0.0mm 76 W/m2
14:01 45.1 °F /  7.3 °C 44.6 °F /  7 °C 30.3in /  1027.4hPa Calm     98% 0in /  0.0mm 83 W/m2
14:06 45.3 °F /  7.4 °C 44.8 °F /  7.1 °C 30.3in /  1027.4hPa Calm     98% 0in /  0.0mm 95 W/m2
14:11 45.5 °F /  7.5 °C 45 °F /  7.2 °C 30.3in /  1027.4hPa Calm   2mph /  3.2km/h 98% 0in /  0.0mm 93 W/m2
14:16 45.5 °F /  7.5 °C 45 °F /  7.2 °C 30.3in /  1027.4hPa Calm     98% 0in /  0.0mm 95 W/m2
14:21 45.5 °F /  7.5 °C 45 °F /  7.2 °C 30.3in /  1027.4hPa Calm     98% 0in /  0.0mm 81 W/m2
14:26 45.7 °F /  7.6 °C 45.1 °F /  7.3 °C 30.3in /  1027.4hPa Calm     98% 0in /  0.0mm 65 W/m2
14:31 45.7 °F /  7.6 °C 45.1 °F /  7.3 °C 30.3in /  1027.4hPa Calm     98% 0in /  0.0mm 60 W/m2
14:36 45.7 °F /  7.6 °C 45.1 °F /  7.3 °C 30.3in /  1027.4hPa WNW 2mph /  3.2km/h 3mph /  4.8km/h 98% 0in /  0.0mm 58 W/m2
14:41 45.7 °F /  7.6 °C 45.1 °F /  7.3 °C 30.3in /  1027.4hPa ESE 2mph /  3.2km/h 2mph /  3.2km/h 98% 0in /  0.0mm 49 W/m2
14:46 45.5 °F /  7.5 °C 44.8 °F /  7.1 °C 30.3in /  1027.4hPa East 2.9mph /  4.7km/h 3mph /  4.8km/h 97% 0in /  0.0mm 46 W/m2
14:51 45.5 °F /  7.5 °C 44.8 °F /  7.1 °C 30.3in /  1027.4hPa Calm   2mph /  3.2km/h 97% 0in /  0.0mm 39 W/m2
14:56 45.3 °F /  7.4 °C 44.6 °F /  7 °C 30.3in /  1027.4hPa Calm   2mph /  3.2km/h 97% 0in /  0.0mm 39 W/m2
15:01 45.5 °F /  7.5 °C 44.8 °F /  7.1 °C 30.3in /  1027.4hPa East 2mph /  3.2km/h 3mph /  4.8km/h 97% 0in /  0.0mm 35 W/m2
15:06 45.5 °F /  7.5 °C 44.8 °F /  7.1 °C 30.3in /  1027.4hPa Calm   2mph /  3.2km/h 97% 0in /  0.0mm 28 W/m2
15:11 45.5 °F /  7.5 °C 44.8 °F /  7.1 °C 30.3in /  1027.4hPa ENE 2mph /  3.2km/h 3mph /  4.8km/h 97% 0in /  0.0mm 26 W/m2
15:16 45.5 °F /  7.5 °C 44.8 °F /  7.1 °C 30.3in /  1027.4hPa East 2mph /  3.2km/h 2mph /  3.2km/h 97% 0in /  0.0mm 26 W/m2
15:21 45.3 °F /  7.4 °C 44.6 °F /  7 °C 30.3in /  1027.4hPa East 0.9mph /  1.4km/h 2mph /  3.2km/h 97% 0in /  0.0mm 21 W/m2
15:26 45.3 °F /  7.4 °C 44.6 °F /  7 °C 30.3in /  1027.4hPa East 0.9mph /  1.4km/h 3mph /  4.8km/h 97% 0in /  0.0mm 21 W/m2
15:31 45.3 °F /  7.4 °C 44.6 °F /  7 °C 30.3in /  1027.4hPa East 0.9mph /  1.4km/h 3mph /  4.8km/h 97% 0in /  0.0mm 16 W/m2
15:36 45.1 °F /  7.3 °C 44.4 °F /  6.9 °C 30.3in /  1027.4hPa East 0.9mph /  1.4km/h 2mph /  3.2km/h 97% 0in /  0.0mm 16 W/m2
15:41 45.1 °F /  7.3 °C 44.4 °F /  6.9 °C 30.3in /  1027.4hPa East 0.9mph /  1.4km/h 2mph /  3.2km/h 97% 0in /  0.0mm 12 W/m2
15:46 45.1 °F /  7.3 °C 44.4 °F /  6.9 °C 30.3in /  1027.4hPa East 0.9mph /  1.4km/h 2mph /  3.2km/h 97% 0in /  0.0mm 12 W/m2
15:51 45.1 °F /  7.3 °C 44.4 °F /  6.9 °C 30.4in /  1027.8hPa Calm     97% 0in /  0.0mm 11 W/m2
15:56 45.1 °F /  7.3 °C 44.4 °F /  6.9 °C 30.4in /  1027.8hPa East 0.9mph /  1.4km/h 2mph /  3.2km/h 97% 0in /  0.0mm 9 W/m2
16:15 45.1 °F /  7.3 °C 44.1 °F /  6.7 °C 30.4in /  1027.8hPa Calm   2mph /  3.2km/h 96% 0in /  0.0mm 0 W/m2
16:20 45.1 °F /  7.3 °C 44.1 °F /  6.7 °C 30.4in /  1027.8hPa Calm   1mph /  1.6km/h 96% 0in /  0.0mm 0 W/m2
16:25 45.1 °F /  7.3 °C 44.1 °F /  6.7 °C 30.4in /  1027.8hPa Calm   2mph /  3.2km/h 96% 0in /  0.0mm 0 W/m2
16:30 45.1 °F /  7.3 °C 44.1 °F /  6.7 °C 30.3in /  1027.4hPa Calm   2mph /  3.2km/h 96% 0in /  0.0mm 0 W/m2
16:35 45 °F /  7.2 °C 43.9 °F /  6.6 °C 30.3in /  1027.4hPa Calm   2mph /  3.2km/h 96% 0in /  0.0mm 0 W/m2
16:40 45 °F /  7.2 °C 43.9 °F /  6.6 °C 30.4in /  1027.8hPa Calm   2mph /  3.2km/h 96% 0in /  0.0mm 0 W/m2
16:45 45 °F /  7.2 °C 43.9 °F /  6.6 °C 30.4in /  1027.8hPa Calm   2mph /  3.2km/h 96% 0in /  0.0mm 0 W/m2
16:50 45 °F /  7.2 °C 43.9 °F /  6.6 °C 30.4in /  1027.8hPa Calm   2mph /  3.2km/h 96% 0in /  0.0mm 0 W/m2
16:55 45 °F /  7.2 °C 43.9 °F /  6.6 °C 30.4in /  1027.8hPa East 2mph /  3.2km/h 3mph /  4.8km/h 96% 0in /  0.0mm 0 W/m2
17:00 44.8 °F /  7.1 °C 43.7 °F /  6.5 °C 30.3in /  1027.4hPa Calm   2mph /  3.2km/h 96% 0in /  0.0mm 0 W/m2
17:05 44.8 °F /  7.1 °C 43.7 °F /  6.5 °C 30.4in /  1027.8hPa Calm   2mph /  3.2km/h 96% 0in /  0.0mm 0 W/m2
17:10 44.8 °F /  7.1 °C 43.7 °F /  6.5 °C 30.4in /  1027.8hPa Calm     96% 0in /  0.0mm 0 W/m2
17:15 44.8 °F /  7.1 °C 43.7 °F /  6.5 °C 30.4in /  1027.8hPa Calm     96% 0in /  0.0mm 0 W/m2
17:20 44.6 °F /  7 °C 43.5 °F /  6.4 °C 30.4in /  1027.8hPa Calm   2mph /  3.2km/h 96% 0in /  0.0mm 0 W/m2
17:25 44.6 °F /  7 °C 43.5 °F /  6.4 °C 30.3in /  1027.4hPa Calm     96% 0in /  0.0mm 0 W/m2
17:30 44.6 °F /  7 °C 43.5 °F /  6.4 °C 30.4in /  1027.8hPa SE 0.9mph /  1.4km/h 2mph /  3.2km/h 96% 0in /  0.0mm 0 W/m2
17:35 44.6 °F /  7 °C 43.5 °F /  6.4 °C 30.4in /  1027.8hPa Calm     96% 0in /  0.0mm 0 W/m2
17:40 44.6 °F /  7 °C 43.5 °F /  6.4 °C 30.4in /  1027.8hPa Calm     96% 0in /  0.0mm 0 W/m2
17:45 44.6 °F /  7 °C 43.5 °F /  6.4 °C 30.4in /  1027.8hPa SE 0.9mph /  1.4km/h 1mph /  1.6km/h 96% 0in /  0.0mm 0 W/m2
17:50 44.6 °F /  7 °C 43.5 °F /  6.4 °C 30.4in /  1027.8hPa Calm     96% 0in /  0.0mm 0 W/m2
17:55 44.6 °F /  7 °C 43.5 °F /  6.4 °C 30.4in /  1027.8hPa Calm   1mph /  1.6km/h 96% 0in /  0.0mm 0 W/m2
18:00 44.6 °F /  7 °C 43.5 °F /  6.4 °C 30.4in /  1027.8hPa Calm     96% 0in /  0.0mm 0 W/m2
18:05 44.6 °F /  7 °C 43.5 °F /  6.4 °C 30.4in /  1027.8hPa Calm     96% 0in /  0.0mm 0 W/m2
18:10 44.4 °F /  6.9 °C 43.3 °F /  6.3 °C 30.4in /  1027.8hPa Calm     96% 0in /  0.0mm 0 W/m2
18:15 44.4 °F /  6.9 °C 43.3 °F /  6.3 °C 30.4in /  1027.8hPa Calm     96% 0in /  0.0mm 0 W/m2
18:20 44.4 °F /  6.9 °C 43.3 °F /  6.3 °C 30.4in /  1027.8hPa Calm     96% 0in /  0.0mm 0 W/m2
18:25 44.4 °F /  6.9 °C 43.3 °F /  6.3 °C 30.4in /  1027.8hPa Calm     96% 0in /  0.0mm 0 W/m2
18:30 44.4 °F /  6.9 °C 43.3 °F /  6.3 °C 30.4in /  1028.1hPa Calm     96% 0in /  0.0mm 0 W/m2
18:35 44.4 °F /  6.9 °C 43.3 °F /  6.3 °C 30.4in /  1028.1hPa Calm     96% 0in /  0.0mm 0 W/m2
18:40 44.4 °F /  6.9 °C 43.3 °F /  6.3 °C 30.4in /  1028.1hPa Calm   3mph /  4.8km/h 96% 0in /  0.0mm 0 W/m2
18:45 44.4 °F /  6.9 °C 43.3 °F /  6.3 °C 30.4in /  1028.1hPa Calm   2mph /  3.2km/h 96% 0in /  0.0mm 0 W/m2
18:50 44.4 °F /  6.9 °C 43.3 °F /  6.3 °C 30.4in /  1028.1hPa ESE 2mph /  3.2km/h 3mph /  4.8km/h 96% 0in /  0.0mm 0 W/m2
18:55 44.4 °F /  6.9 °C 43.3 °F /  6.3 °C 30.4in /  1028.1hPa Calm     96% 0in /  0.0mm 0 W/m2
19:00 44.4 °F /  6.9 °C 43.3 °F /  6.3 °C 30.4in /  1028.1hPa Calm   1mph /  1.6km/h 96% 0in /  0.0mm 0 W/m2
19:05 44.4 °F /  6.9 °C 43.3 °F /  6.3 °C 30.4in /  1028.1hPa Calm     96% 0in /  0.0mm 0 W/m2
19:22 44.4 °F /  6.9 °C 43.3 °F /  6.3 °C 30.4in /  1028.1hPa Calm     96% 0in /  0.0mm 0 W/m2
19:27 44.4 °F /  6.9 °C 43.3 °F /  6.3 °C 30.4in /  1028.1hPa Calm   3mph /  4.8km/h 96% 0in /  0.0mm 0 W/m2
19:33 44.4 °F /  6.9 °C 43.3 °F /  6.3 °C 30.4in /  1028.1hPa Calm   2mph /  3.2km/h 96% 0in /  0.0mm 0 W/m2
19:38 44.2 °F /  6.8 °C 43.2 °F /  6.2 °C 30.4in /  1028.1hPa Calm   3mph /  4.8km/h 96% 0in /  0.0mm 0 W/m2
19:43 44.2 °F /  6.8 °C 43.2 °F /  6.2 °C 30.4in /  1028.1hPa Calm     96% 0in /  0.0mm 0 W/m2
19:48 44.2 °F /  6.8 °C 43 °F /  6.1 °C 30.4in /  1028.1hPa SE 0.9mph /  1.4km/h 1mph /  1.6km/h 95% 0in /  0.0mm 0 W/m2
19:53 44.2 °F /  6.8 °C 43 °F /  6.1 °C 30.4in /  1028.1hPa Calm     95% 0in /  0.0mm 0 W/m2
19:58 44.2 °F /  6.8 °C 43 °F /  6.1 °C 30.4in /  1028.1hPa Calm     95% 0in /  0.0mm 0 W/m2
20:03 44.2 °F /  6.8 °C 43 °F /  6.1 °C 30.4in /  1028.1hPa East 2mph /  3.2km/h 4mph /  6.4km/h 95% 0in /  0.0mm 0 W/m2
20:08 44.2 °F /  6.8 °C 43 °F /  6.1 °C 30.4in /  1028.1hPa ESE 2mph /  3.2km/h 2mph /  3.2km/h 95% 0in /  0.0mm 0 W/m2
20:13 44.2 °F /  6.8 °C 43 °F /  6.1 °C 30.4in /  1027.8hPa Calm   3mph /  4.8km/h 95% 0in /  0.0mm 0 W/m2
20:18 44.2 °F /  6.8 °C 43 °F /  6.1 °C 30.4in /  1027.8hPa ESE 0.9mph /  1.4km/h 3mph /  4.8km/h 95% 0in /  0.0mm 0 W/m2
20:23 44.2 °F /  6.8 °C 43 °F /  6.1 °C 30.4in /  1027.8hPa ESE 0.9mph /  1.4km/h 2mph /  3.2km/h 95% 0in /  0.0mm 0 W/m2
20:28 44.2 °F /  6.8 °C 43 °F /  6.1 °C 30.4in /  1027.8hPa Calm   2mph /  3.2km/h 95% 0in /  0.0mm 0 W/m2
20:44 44.2 °F /  6.8 °C 43 °F /  6.1 °C 30.4in /  1027.8hPa Calm   2mph /  3.2km/h 95% 0in /  0.0mm 0 W/m2
20:49 44.2 °F /  6.8 °C 43 °F /  6.1 °C 30.4in /  1027.8hPa ESE 0.9mph /  1.4km/h 4mph /  6.4km/h 95% 0in /  0.0mm 0 W/m2
20:54 44.1 °F /  6.7 °C 42.8 °F /  6 °C 30.4in /  1027.8hPa ESE 0.9mph /  1.4km/h 2mph /  3.2km/h 95% 0in /  0.0mm 0 W/m2
20:59 44.1 °F /  6.7 °C 42.8 °F /  6 °C 30.4in /  1027.8hPa ESE 0.9mph /  1.4km/h 4mph /  6.4km/h 95% 0in /  0.0mm 0 W/m2
21:04 44.1 °F /  6.7 °C 42.8 °F /  6 °C 30.4in /  1027.8hPa East 2.9mph /  4.7km/h 3mph /  4.8km/h 95% 0in /  0.0mm 0 W/m2
21:09 44.1 °F /  6.7 °C 42.8 °F /  6 °C 30.4in /  1027.8hPa Calm   1mph /  1.6km/h 95% 0in /  0.0mm 0 W/m2
21:14 44.1 °F /  6.7 °C 42.8 °F /  6 °C 30.4in /  1027.8hPa East 0.9mph /  1.4km/h 3mph /  4.8km/h 95% 0in /  0.0mm 0 W/m2
21:19 43.9 °F /  6.6 °C 42.6 °F /  5.9 °C 30.4in /  1027.8hPa ESE 2mph /  3.2km/h 7mph /  11.3km/h 95% 0in /  0.0mm 0 W/m2
21:24 43.9 °F /  6.6 °C 42.6 °F /  5.9 °C 30.4in /  1027.8hPa Calm   1mph /  1.6km/h 95% 0in /  0.0mm 0 W/m2
21:29 43.7 °F /  6.5 °C 42.4 °F /  5.8 °C 30.4in /  1027.8hPa Calm     95% 0in /  0.0mm 0 W/m2
21:34 43.9 °F /  6.6 °C 42.8 °F /  6 °C 30.4in /  1027.8hPa Calm   2mph /  3.2km/h 96% 0in /  0.0mm 0 W/m2
21:39 43.7 °F /  6.5 °C 42.6 °F /  5.9 °C 30.4in /  1027.8hPa ESE 0.9mph /  1.4km/h 2mph /  3.2km/h 96% 0in /  0.0mm 0 W/m2
21:44 43.7 °F /  6.5 °C 42.6 °F /  5.9 °C 30.4in /  1027.8hPa ESE 0.9mph /  1.4km/h 1mph /  1.6km/h 96% 0in /  0.0mm 0 W/m2
21:49 43.7 °F /  6.5 °C 42.6 °F /  5.9 °C 30.4in /  1027.8hPa ESE 0.9mph /  1.4km/h 2mph /  3.2km/h 96% 0in /  0.0mm 0 W/m2
21:54 43.5 °F /  6.4 °C 42.4 °F /  5.8 °C 30.4in /  1027.8hPa ESE 0.9mph /  1.4km/h 3mph /  4.8km/h 96% 0in /  0.0mm 0 W/m2
21:59 43.5 °F /  6.4 °C 42.4 °F /  5.8 °C 30.4in /  1027.8hPa Calm   3mph /  4.8km/h 96% 0in /  0.0mm 0 W/m2
22:05 43.5 °F /  6.4 °C 42.4 °F /  5.8 °C 30.4in /  1027.8hPa SE 0.9mph /  1.4km/h 2mph /  3.2km/h 96% 0in /  0.0mm 0 W/m2
22:10 43.5 °F /  6.4 °C 42.4 °F /  5.8 °C 30.4in /  1027.8hPa ESE 0.9mph /  1.4km/h 3mph /  4.8km/h 96% 0in /  0.0mm 0 W/m2
22:15 43.3 °F /  6.3 °C 42.3 °F /  5.7 °C 30.4in /  1027.8hPa ENE 0.9mph /  1.4km/h 2mph /  3.2km/h 96% 0in /  0.0mm 0 W/m2
22:20 43.3 °F /  6.3 °C 42.3 °F /  5.7 °C 30.4in /  1027.8hPa ESE 0.9mph /  1.4km/h 3mph /  4.8km/h 96% 0in /  0.0mm 0 W/m2
22:25 43.3 °F /  6.3 °C 42.3 °F /  5.7 °C 30.4in /  1027.8hPa ESE 0.9mph /  1.4km/h 2mph /  3.2km/h 96% 0in /  0.0mm 0 W/m2
22:30 43.3 °F /  6.3 °C 42.3 °F /  5.7 °C 30.4in /  1027.8hPa Calm   2mph /  3.2km/h 96% 0in /  0.0mm 0 W/m2
22:35 43.3 °F /  6.3 °C 42.3 °F /  5.7 °C 30.4in /  1027.8hPa Calm   2mph /  3.2km/h 96% 0in /  0.0mm 0 W/m2
22:40 43.3 °F /  6.3 °C 42.3 °F /  5.7 °C 30.4in /  1027.8hPa ESE 2mph /  3.2km/h 2mph /  3.2km/h 96% 0in /  0.0mm 0 W/m2
22:45 43.2 °F /  6.2 °C 42.1 °F /  5.6 °C 30.4in /  1027.8hPa ESE 0.9mph /  1.4km/h 2mph /  3.2km/h 96% 0in /  0.0mm 0 W/m2
22:50 43.2 °F /  6.2 °C 42.1 °F /  5.6 °C 30.4in /  1027.8hPa East 2mph /  3.2km/h 2mph /  3.2km/h 96% 0in /  0.0mm 0 W/m2
22:55 43.2 °F /  6.2 °C 42.1 °F /  5.6 °C 30.3in /  1027.4hPa ESE 2mph /  3.2km/h 3mph /  4.8km/h 96% 0in /  0.0mm 0 W/m2
23:00 43 °F /  6.1 °C 41.9 °F /  5.5 °C 30.3in /  1027.4hPa ESE 2mph /  3.2km/h 4mph /  6.4km/h 96% 0in /  0.0mm 0 W/m2
23:05 43 °F /  6.1 °C 41.9 °F /  5.5 °C 30.3in /  1027.4hPa Calm     96% 0in /  0.0mm 0 W/m2
23:10 43 °F /  6.1 °C 41.9 °F /  5.5 °C 30.3in /  1027.4hPa ESE 2mph /  3.2km/h 4mph /  6.4km/h 96% 0in /  0.0mm 0 W/m2
23:15 43 °F /  6.1 °C 41.9 °F /  5.5 °C 30.4in /  1027.8hPa ESE 0.9mph /  1.4km/h 2mph /  3.2km/h 96% 0in /  0.0mm 0 W/m2
23:20 43 °F /  6.1 °C 41.9 °F /  5.5 °C 30.4in /  1027.8hPa Calm     96% 0in /  0.0mm 0 W/m2
23:25 43 °F /  6.1 °C 41.9 °F /  5.5 °C 30.4in /  1027.8hPa East 2mph /  3.2km/h 4mph /  6.4km/h 96% 0in /  0.0mm 0 W/m2
23:30 43 °F /  6.1 °C 41.9 °F /  5.5 °C 30.4in /  1027.8hPa Calm   1mph /  1.6km/h 96% 0in /  0.0mm 0 W/m2
23:35 43 °F /  6.1 °C 41.9 °F /  5.5 °C 30.4in /  1027.8hPa Calm   4mph /  6.4km/h 96% 0in /  0.0mm 0 W/m2
23:40 43 °F /  6.1 °C 41.9 °F /  5.5 °C 30.4in /  1027.8hPa Calm     96% 0in /  0.0mm 0 W/m2
23:45 43 °F /  6.1 °C 41.9 °F /  5.5 °C 30.4in /  1027.8hPa Calm     96% 0in /  0.0mm 0 W/m2
23:50 43 °F /  6.1 °C 41.9 °F /  5.5 °C 30.4in /  1027.8hPa Calm   2mph /  3.2km/h 96% 0in /  0.0mm 0 W/m2
23:55 43 °F /  6.1 °C 41.9 °F /  5.5 °C 30.3in /  1027.4hPa ESE 0.9mph /  1.4km/h 3mph /  4.8km/h 96% 0in /  0.0mm 0 W/m2
Juneau County Weather
Compliments of Weather Underground - 4 mb